sensor_id;sensor_type;location;lat;lon;timestamp;temperature;humidity
49679;DHT22;35570;48.218;16.326;2023-04-24T00:00:07;16.50;88.70
49679;DHT22;35570;48.218;16.326;2023-04-24T00:02:37;16.40;89.20
49679;DHT22;35570;48.218;16.326;2023-04-24T00:05:17;16.40;89.50
49679;DHT22;35570;48.218;16.326;2023-04-24T00:07:45;16.50;89.30
49679;DHT22;35570;48.218;16.326;2023-04-24T00:10:13;16.50;89.10
49679;DHT22;35570;48.218;16.326;2023-04-24T00:12:45;16.50;89.60
49679;DHT22;35570;48.218;16.326;2023-04-24T00:15:16;16.40;89.20
49679;DHT22;35570;48.218;16.326;2023-04-24T00:17:42;16.40;89.60
49679;DHT22;35570;48.218;16.326;2023-04-24T00:20:28;16.40;89.80
49679;DHT22;35570;48.218;16.326;2023-04-24T00:23:14;16.40;89.50
49679;DHT22;35570;48.218;16.326;2023-04-24T00:26:16;16.40;89.90
49679;DHT22;35570;48.218;16.326;2023-04-24T00:28:47;16.40;89.50
49679;DHT22;35570;48.218;16.326;2023-04-24T00:31:14;16.40;90.00
49679;DHT22;35570;48.218;16.326;2023-04-24T00:36:21;16.40;90.00
49679;DHT22;35570;48.218;16.326;2023-04-24T00:42:08;16.40;90.30
49679;DHT22;35570;48.218;16.326;2023-04-24T00:44:37;16.50;90.20
49679;DHT22;35570;48.218;16.326;2023-04-24T00:54:06;16.60;89.10
49679;DHT22;35570;48.218;16.326;2023-04-24T01:03:21;16.50;88.90
49679;DHT22;35570;48.218;16.326;2023-04-24T01:06:08;16.40;89.10
49679;DHT22;35570;48.218;16.326;2023-04-24T01:08:42;16.30;90.00
49679;DHT22;35570;48.218;16.326;2023-04-24T01:11:17;16.20;90.00
49679;DHT22;35570;48.218;16.326;2023-04-24T01:13:49;16.20;90.70
49679;DHT22;35570;48.218;16.326;2023-04-24T01:16:19;16.20;90.70
49679;DHT22;35570;48.218;16.326;2023-04-24T01:18:47;16.20;90.30
49679;DHT22;35570;48.218;16.326;2023-04-24T01:21:19;16.20;90.40
49679;DHT22;35570;48.218;16.326;2023-04-24T01:23:49;16.10;90.30
49679;DHT22;35570;48.218;16.326;2023-04-24T01:26:34;16.10;90.50
49679;DHT22;35570;48.218;16.326;2023-04-24T01:29:28;16.10;90.30
49679;DHT22;35570;48.218;16.326;2023-04-24T01:31:56;16.00;90.70
49679;DHT22;35570;48.218;16.326;2023-04-24T01:34:49;15.90;91.00
49679;DHT22;35570;48.218;16.326;2023-04-24T01:37:17;15.80;91.60
49679;DHT22;35570;48.218;16.326;2023-04-24T01:39:49;15.70;91.80
49679;DHT22;35570;48.218;16.326;2023-04-24T01:42:34;15.70;91.90
49679;DHT22;35570;48.218;16.326;2023-04-24T01:45:02;15.70;92.20
49679;DHT22;35570;48.218;16.326;2023-04-24T01:47:35;15.70;92.30
49679;DHT22;35570;48.218;16.326;2023-04-24T01:50:13;15.70;92.60
49679;DHT22;35570;48.218;16.326;2023-04-24T01:52:39;15.80;92.60
49679;DHT22;35570;48.218;16.326;2023-04-24T01:55:23;15.80;92.70
49679;DHT22;35570;48.218;16.326;2023-04-24T01:58:26;15.80;92.70
49679;DHT22;35570;48.218;16.326;2023-04-24T02:00:56;15.90;92.70
49679;DHT22;35570;48.218;16.326;2023-04-24T02:03:25;15.70;92.30
49679;DHT22;35570;48.218;16.326;2023-04-24T02:05:57;15.50;92.50
49679;DHT22;35570;48.218;16.326;2023-04-24T02:08:29;15.20;93.80
49679;DHT22;35570;48.218;16.326;2023-04-24T02:14:03;14.80;95.20
49679;DHT22;35570;48.218;16.326;2023-04-24T02:16:36;14.80;95.00
49679;DHT22;35570;48.218;16.326;2023-04-24T02:19:04;14.80;94.60
49679;DHT22;35570;48.218;16.326;2023-04-24T02:21:30;14.90;93.80
49679;DHT22;35570;48.218;16.326;2023-04-24T02:23:56;14.90;93.80
49679;DHT22;35570;48.218;16.326;2023-04-24T02:26:24;14.90;93.70
49679;DHT22;35570;48.218;16.326;2023-04-24T02:28:50;14.80;93.70
49679;DHT22;35570;48.218;16.326;2023-04-24T02:31:16;14.70;94.00
49679;DHT22;35570;48.218;16.326;2023-04-24T02:33:42;14.60;94.50
49679;DHT22;35570;48.218;16.326;2023-04-24T02:36:08;14.50;95.00
49679;DHT22;35570;48.218;16.326;2023-04-24T02:38:34;14.50;94.90
49679;DHT22;35570;48.218;16.326;2023-04-24T02:41:01;14.50;95.30
49679;DHT22;35570;48.218;16.326;2023-04-24T02:43:27;14.60;95.10
49679;DHT22;35570;48.218;16.326;2023-04-24T02:45:56;14.60;94.90
49679;DHT22;35570;48.218;16.326;2023-04-24T02:48:27;14.50;95.20
49679;DHT22;35570;48.218;16.326;2023-04-24T02:54:07;14.60;95.30
49679;DHT22;35570;48.218;16.326;2023-04-24T02:56:39;14.70;95.00
49679;DHT22;35570;48.218;16.326;2023-04-24T02:59:14;14.60;94.60
49679;DHT22;35570;48.218;16.326;2023-04-24T03:01:47;14.60;94.70
49679;DHT22;35570;48.218;16.326;2023-04-24T03:04:13;14.60;94.80
49679;DHT22;35570;48.218;16.326;2023-04-24T03:06:40;14.50;95.00
49679;DHT22;35570;48.218;16.326;2023-04-24T03:09:06;14.50;94.90
49679;DHT22;35570;48.218;16.326;2023-04-24T03:11:36;14.50;95.20
49679;DHT22;35570;48.218;16.326;2023-04-24T03:14:13;14.50;95.70
49679;DHT22;35570;48.218;16.326;2023-04-24T03:16:45;14.40;95.50
49679;DHT22;35570;48.218;16.326;2023-04-24T03:19:13;14.50;95.60
49679;DHT22;35570;48.218;16.326;2023-04-24T03:21:39;14.40;95.80
49679;DHT22;35570;48.218;16.326;2023-04-24T03:24:09;14.40;95.90
49679;DHT22;35570;48.218;16.326;2023-04-24T03:26:35;14.40;96.00
49679;DHT22;35570;48.218;16.326;2023-04-24T03:29:03;14.40;96.30
49679;DHT22;35570;48.218;16.326;2023-04-24T03:31:37;14.30;96.50
49679;DHT22;35570;48.218;16.326;2023-04-24T03:34:06;14.30;96.70
49679;DHT22;35570;48.218;16.326;2023-04-24T03:36:41;14.30;96.80
49679;DHT22;35570;48.218;16.326;2023-04-24T03:39:07;14.30;96.80
49679;DHT22;35570;48.218;16.326;2023-04-24T03:41:33;14.10;96.80
49679;DHT22;35570;48.218;16.326;2023-04-24T03:43:59;14.30;97.10
49679;DHT22;35570;48.218;16.326;2023-04-24T03:46:25;14.30;97.10
49679;DHT22;35570;48.218;16.326;2023-04-24T03:51:28;14.40;97.10
49679;DHT22;35570;48.218;16.326;2023-04-24T03:56:31;14.40;97.20
49679;DHT22;35570;48.218;16.326;2023-04-24T03:58:56;14.40;97.40
49679;DHT22;35570;48.218;16.326;2023-04-24T04:01:33;14.40;97.50
49679;DHT22;35570;48.218;16.326;2023-04-24T04:12:30;14.50;97.30
49679;DHT22;35570;48.218;16.326;2023-04-24T04:14:56;14.50;97.30
49679;DHT22;35570;48.218;16.326;2023-04-24T04:17:23;15.50;97.50
49679;DHT22;35570;48.218;16.326;2023-04-24T04:19:49;14.40;97.50
49679;DHT22;35570;48.218;16.326;2023-04-24T04:22:16;14.30;97.50
49679;DHT22;35570;48.218;16.326;2023-04-24T04:24:42;14.40;97.50
49679;DHT22;35570;48.218;16.326;2023-04-24T04:27:08;14.20;97.30
49679;DHT22;35570;48.218;16.326;2023-04-24T04:29:34;14.30;97.50
49679;DHT22;35570;48.218;16.326;2023-04-24T04:32:16;14.40;97.50
49679;DHT22;35570;48.218;16.326;2023-04-24T04:35:22;14.40;97.30
49679;DHT22;35570;48.218;16.326;2023-04-24T04:37:48;14.50;97.00
49679;DHT22;35570;48.218;16.326;2023-04-24T04:40:14;14.50;97.00
49679;DHT22;35570;48.218;16.326;2023-04-24T04:42:40;14.50;96.90
49679;DHT22;35570;48.218;16.326;2023-04-24T04:45:09;14.40;97.00
49679;DHT22;35570;48.218;16.326;2023-04-24T04:47:36;14.40;97.10
49679;DHT22;35570;48.218;16.326;2023-04-24T04:50:02;14.40;97.10
49679;DHT22;35570;48.218;16.326;2023-04-24T04:55:00;14.30;97.30
49679;DHT22;35570;48.218;16.326;2023-04-24T04:57:25;14.30;97.30
49679;DHT22;35570;48.218;16.326;2023-04-24T05:02:27;14.40;96.90
49679;DHT22;35570;48.218;16.326;2023-04-24T05:04:52;14.50;97.00
49679;DHT22;35570;48.218;16.326;2023-04-24T05:07:18;14.50;96.70
49679;DHT22;35570;48.218;16.326;2023-04-24T05:09:44;14.30;96.50
49679;DHT22;35570;48.218;16.326;2023-04-24T05:12:10;14.60;96.40
49679;DHT22;35570;48.218;16.326;2023-04-24T05:14:36;14.80;96.10
49679;DHT22;35570;48.218;16.326;2023-04-24T05:17:01;14.90;95.20
49679;DHT22;35570;48.218;16.326;2023-04-24T05:27:16;15.20;94.80
49679;DHT22;35570;48.218;16.326;2023-04-24T05:45:13;15.60;92.50
49679;DHT22;35570;48.218;16.326;2023-04-24T05:47:43;15.60;92.50
49679;DHT22;35570;48.218;16.326;2023-04-24T05:52:46;15.50;92.10
49679;DHT22;35570;48.218;16.326;2023-04-24T05:55:12;15.50;92.00
49679;DHT22;35570;48.218;16.326;2023-04-24T06:00:14;15.50;91.80
49679;DHT22;35570;48.218;16.326;2023-04-24T06:02:40;15.40;91.90
49679;DHT22;35570;48.218;16.326;2023-04-24T06:05:06;15.40;91.40
49679;DHT22;35570;48.218;16.326;2023-04-24T06:13:43;15.50;91.20
49679;DHT22;35570;48.218;16.326;2023-04-24T06:16:09;15.60;91.00
49679;DHT22;35570;48.218;16.326;2023-04-24T06:18:35;15.60;90.40
49679;DHT22;35570;48.218;16.326;2023-04-24T06:21:06;15.70;90.20
49679;DHT22;35570;48.218;16.326;2023-04-24T06:29:34;15.90;88.50
49679;DHT22;35570;48.218;16.326;2023-04-24T06:31:59;15.90;87.70
49679;DHT22;35570;48.218;16.326;2023-04-24T06:34:25;15.90;88.00
49679;DHT22;35570;48.218;16.326;2023-04-24T06:36:51;16.00;86.80
49679;DHT22;35570;48.218;16.326;2023-04-24T06:39:17;16.00;87.10
49679;DHT22;35570;48.218;16.326;2023-04-24T06:41:43;15.90;87.00
49679;DHT22;35570;48.218;16.326;2023-04-24T06:44:08;16.00;87.80
49679;DHT22;35570;48.218;16.326;2023-04-24T06:46:34;16.10;87.90
49679;DHT22;35570;48.218;16.326;2023-04-24T06:49:00;16.30;86.60
49679;DHT22;35570;48.218;16.326;2023-04-24T06:51:26;16.40;84.90
49679;DHT22;35570;48.218;16.326;2023-04-24T06:53:55;16.50;83.70
49679;DHT22;35570;48.218;16.326;2023-04-24T06:56:21;16.50;82.40
49679;DHT22;35570;48.218;16.326;2023-04-24T06:58:48;16.50;82.90
49679;DHT22;35570;48.218;16.326;2023-04-24T07:01:13;16.50;83.50
49679;DHT22;35570;48.218;16.326;2023-04-24T07:03:39;16.60;81.90
49679;DHT22;35570;48.218;16.326;2023-04-24T07:06:05;16.70;80.60
49679;DHT22;35570;48.218;16.326;2023-04-24T07:08:31;16.50;81.30
49679;DHT22;35570;48.218;16.326;2023-04-24T07:10:58;16.50;81.90
49679;DHT22;35570;48.218;16.326;2023-04-24T07:13:24;16.40;82.20
49679;DHT22;35570;48.218;16.326;2023-04-24T07:15:50;16.40;82.40
49679;DHT22;35570;48.218;16.326;2023-04-24T07:18:18;16.40;82.90
49679;DHT22;35570;48.218;16.326;2023-04-24T07:20:44;16.50;83.10
49679;DHT22;35570;48.218;16.326;2023-04-24T07:23:10;16.40;83.80
49679;DHT22;35570;48.218;16.326;2023-04-24T07:25:36;16.60;87.60
49679;DHT22;35570;48.218;16.326;2023-04-24T07:28:01;16.70;91.20
49679;DHT22;35570;48.218;16.326;2023-04-24T07:30:27;16.50;91.20
49679;DHT22;35570;48.218;16.326;2023-04-24T07:32:54;16.30;94.00
49679;DHT22;35570;48.218;16.326;2023-04-24T07:35:21;16.10;93.60
49679;DHT22;35570;48.218;16.326;2023-04-24T07:37:47;16.00;95.20
49679;DHT22;35570;48.218;16.326;2023-04-24T07:40:13;16.00;95.20
49679;DHT22;35570;48.218;16.326;2023-04-24T07:42:40;16.00;95.50
49679;DHT22;35570;48.218;16.326;2023-04-24T07:45:06;15.80;96.00
49679;DHT22;35570;48.218;16.326;2023-04-24T07:47:32;15.70;95.80
49679;DHT22;35570;48.218;16.326;2023-04-24T07:49:59;15.70;95.50
49679;DHT22;35570;48.218;16.326;2023-04-24T07:52:24;15.70;95.80
49679;DHT22;35570;48.218;16.326;2023-04-24T07:54:50;15.70;95.60
49679;DHT22;35570;48.218;16.326;2023-04-24T07:57:18;15.60;96.20
49679;DHT22;35570;48.218;16.326;2023-04-24T07:59:43;15.60;96.90
49679;DHT22;35570;48.218;16.326;2023-04-24T08:02:09;15.50;97.50
49679;DHT22;35570;48.218;16.326;2023-04-24T08:04:35;15.50;98.10
49679;DHT22;35570;48.218;16.326;2023-04-24T08:07:01;15.40;98.60
49679;DHT22;35570;48.218;16.326;2023-04-24T08:09:26;15.40;99.20
49679;DHT22;35570;48.218;16.326;2023-04-24T08:11:52;15.30;98.80
49679;DHT22;35570;48.218;16.326;2023-04-24T08:14:18;15.30;99.50
49679;DHT22;35570;48.218;16.326;2023-04-24T08:16:44;15.30;99.10
49679;DHT22;35570;48.218;16.326;2023-04-24T08:19:10;15.30;99.20
49679;DHT22;35570;48.218;16.326;2023-04-24T08:21:35;15.40;97.70
49679;DHT22;35570;48.218;16.326;2023-04-24T08:24:01;15.50;97.90
49679;DHT22;35570;48.218;16.326;2023-04-24T08:26:30;15.40;97.10
49679;DHT22;35570;48.218;16.326;2023-04-24T08:28:57;15.30;97.20
49679;DHT22;35570;48.218;16.326;2023-04-24T08:31:22;15.30;96.60
49679;DHT22;35570;48.218;16.326;2023-04-24T08:33:50;15.10;96.90
49679;DHT22;35570;48.218;16.326;2023-04-24T08:36:16;14.90;97.40
49679;DHT22;35570;48.218;16.326;2023-04-24T08:38:42;14.80;98.20
49679;DHT22;35570;48.218;16.326;2023-04-24T08:41:08;14.70;98.70
49679;DHT22;35570;48.218;16.326;2023-04-24T08:43:35;14.70;99.00
49679;DHT22;35570;48.218;16.326;2023-04-24T08:46:03;14.60;99.60
49679;DHT22;35570;48.218;16.326;2023-04-24T08:48:29;14.50;99.90
49679;DHT22;35570;48.218;16.326;2023-04-24T08:50:56;14.30;99.90
49679;DHT22;35570;48.218;16.326;2023-04-24T08:53:24;14.10;99.90
49679;DHT22;35570;48.218;16.326;2023-04-24T08:55:51;14.00;99.90
49679;DHT22;35570;48.218;16.326;2023-04-24T08:58:19;14.00;99.90
49679;DHT22;35570;48.218;16.326;2023-04-24T09:00:45;13.90;99.90
49679;DHT22;35570;48.218;16.326;2023-04-24T09:03:15;13.90;99.90
49679;DHT22;35570;48.218;16.326;2023-04-24T09:05:46;13.80;99.90
49679;DHT22;35570;48.218;16.326;2023-04-24T09:08:17;13.70;99.90
49679;DHT22;35570;48.218;16.326;2023-04-24T09:10:43;13.60;99.90
49679;DHT22;35570;48.218;16.326;2023-04-24T09:13:09;13.60;99.90
49679;DHT22;35570;48.218;16.326;2023-04-24T09:15:36;13.50;99.90
49679;DHT22;35570;48.218;16.326;2023-04-24T09:18:04;13.40;99.90
49679;DHT22;35570;48.218;16.326;2023-04-24T09:20:30;13.40;99.90
49679;DHT22;35570;48.218;16.326;2023-04-24T09:22:59;13.30;99.90
49679;DHT22;35570;48.218;16.326;2023-04-24T09:25:32;13.30;99.90
49679;DHT22;35570;48.218;16.326;2023-04-24T09:28:01;13.30;99.90
49679;DHT22;35570;48.218;16.326;2023-04-24T09:30:28;13.30;99.90
49679;DHT22;35570;48.218;16.326;2023-04-24T09:33:10;13.20;99.90
49679;DHT22;35570;48.218;16.326;2023-04-24T09:35:39;13.20;99.90
49679;DHT22;35570;48.218;16.326;2023-04-24T09:38:05;13.30;99.90
49679;DHT22;35570;48.218;16.326;2023-04-24T09:40:34;13.20;99.90
49679;DHT22;35570;48.218;16.326;2023-04-24T09:43:00;13.20;99.90
49679;DHT22;35570;48.218;16.326;2023-04-24T09:45:28;13.20;99.90
49679;DHT22;35570;48.218;16.326;2023-04-24T09:48:00;13.10;99.90
49679;DHT22;35570;48.218;16.326;2023-04-24T09:50:26;13.20;99.90
49679;DHT22;35570;48.218;16.326;2023-04-24T09:53:01;13.20;99.90
49679;DHT22;35570;48.218;16.326;2023-04-24T09:55:27;13.20;99.90
49679;DHT22;35570;48.218;16.326;2023-04-24T09:57:54;13.30;99.90
49679;DHT22;35570;48.218;16.326;2023-04-24T10:00:25;13.30;99.90
49679;DHT22;35570;48.218;16.326;2023-04-24T10:05:32;13.40;99.90
49679;DHT22;35570;48.218;16.326;2023-04-24T10:08:01;13.40;99.90
49679;DHT22;35570;48.218;16.326;2023-04-24T10:10:27;13.50;99.90
49679;DHT22;35570;48.218;16.326;2023-04-24T10:12:53;13.40;99.90
49679;DHT22;35570;48.218;16.326;2023-04-24T10:15:20;13.50;99.90
49679;DHT22;35570;48.218;16.326;2023-04-24T10:17:50;13.50;99.90
49679;DHT22;35570;48.218;16.326;2023-04-24T10:20:24;13.60;99.90
49679;DHT22;35570;48.218;16.326;2023-04-24T10:22:51;13.60;99.90
49679;DHT22;35570;48.218;16.326;2023-04-24T10:25:23;13.50;99.90
49679;DHT22;35570;48.218;16.326;2023-04-24T10:27:50;13.60;99.90
49679;DHT22;35570;48.218;16.326;2023-04-24T10:30:17;13.50;99.90
49679;DHT22;35570;48.218;16.326;2023-04-24T10:32:44;13.50;99.90
49679;DHT22;35570;48.218;16.326;2023-04-24T10:35:12;13.40;99.90
49679;DHT22;35570;48.218;16.326;2023-04-24T10:37:44;13.40;99.90
49679;DHT22;35570;48.218;16.326;2023-04-24T10:40:11;13.30;99.90
49679;DHT22;35570;48.218;16.326;2023-04-24T10:42:40;13.30;99.90
49679;DHT22;35570;48.218;16.326;2023-04-24T10:45:19;13.30;99.90
49679;DHT22;35570;48.218;16.326;2023-04-24T10:47:56;13.30;99.90
49679;DHT22;35570;48.218;16.326;2023-04-24T10:50:22;13.30;99.90
49679;DHT22;35570;48.218;16.326;2023-04-24T10:52:49;13.20;99.90
49679;DHT22;35570;48.218;16.326;2023-04-24T10:55:43;13.20;99.90
49679;DHT22;35570;48.218;16.326;2023-04-24T10:58:09;13.30;99.90
49679;DHT22;35570;48.218;16.326;2023-04-24T11:00:40;13.40;99.90
49679;DHT22;35570;48.218;16.326;2023-04-24T11:03:12;13.40;99.90
49679;DHT22;35570;48.218;16.326;2023-04-24T11:06:02;13.50;99.90
49679;DHT22;35570;48.218;16.326;2023-04-24T11:08:33;13.50;99.90
49679;DHT22;35570;48.218;16.326;2023-04-24T11:11:18;13.40;99.90
49679;DHT22;35570;48.218;16.326;2023-04-24T11:16:53;13.40;99.90
49679;DHT22;35570;48.218;16.326;2023-04-24T11:19:24;13.40;99.90
49679;DHT22;35570;48.218;16.326;2023-04-24T11:22:01;13.40;99.90
49679;DHT22;35570;48.218;16.326;2023-04-24T11:27:18;13.40;99.90
49679;DHT22;35570;48.218;16.326;2023-04-24T11:32:30;13.50;99.90
49679;DHT22;35570;48.218;16.326;2023-04-24T11:35:02;13.50;99.90
49679;DHT22;35570;48.218;16.326;2023-04-24T11:37:38;13.60;99.90
49679;DHT22;35570;48.218;16.326;2023-04-24T11:40:06;13.70;99.90
49679;DHT22;35570;48.218;16.326;2023-04-24T11:42:39;13.80;99.90
49679;DHT22;35570;48.218;16.326;2023-04-24T11:47:35;13.90;99.90
49679;DHT22;35570;48.218;16.326;2023-04-24T11:50:03;13.80;99.90
49679;DHT22;35570;48.218;16.326;2023-04-24T11:52:30;13.70;99.90
49679;DHT22;35570;48.218;16.326;2023-04-24T11:54:56;13.70;99.90
49679;DHT22;35570;48.218;16.326;2023-04-24T11:57:23;13.70;99.90
49679;DHT22;35570;48.218;16.326;2023-04-24T11:59:49;13.70;99.90
49679;DHT22;35570;48.218;16.326;2023-04-24T12:02:26;13.80;99.90
49679;DHT22;35570;48.218;16.326;2023-04-24T12:04:53;13.90;99.90
49679;DHT22;35570;48.218;16.326;2023-04-24T12:07:20;14.10;99.90
49679;DHT22;35570;48.218;16.326;2023-04-24T12:09:59;14.30;99.90
49679;DHT22;35570;48.218;16.326;2023-04-24T12:12:26;14.50;99.90
49679;DHT22;35570;48.218;16.326;2023-04-24T12:14:54;14.60;99.90
49679;DHT22;35570;48.218;16.326;2023-04-24T12:17:33;14.70;99.90
49679;DHT22;35570;48.218;16.326;2023-04-24T12:20:04;14.90;99.90
49679;DHT22;35570;48.218;16.326;2023-04-24T12:22:53;15.00;99.90
49679;DHT22;35570;48.218;16.326;2023-04-24T12:25:24;15.20;99.90
49679;DHT22;35570;48.218;16.326;2023-04-24T12:28:15;15.30;99.90
49679;DHT22;35570;48.218;16.326;2023-04-24T12:30:42;15.40;99.90
49679;DHT22;35570;48.218;16.326;2023-04-24T12:33:11;15.40;99.90
49679;DHT22;35570;48.218;16.326;2023-04-24T12:35:37;15.40;99.90
49679;DHT22;35570;48.218;16.326;2023-04-24T12:38:09;15.50;99.90
49679;DHT22;35570;48.218;16.326;2023-04-24T12:40:35;15.50;99.90
49679;DHT22;35570;48.218;16.326;2023-04-24T12:43:01;15.60;99.90
49679;DHT22;35570;48.218;16.326;2023-04-24T12:45:27;15.50;99.90
49679;DHT22;35570;48.218;16.326;2023-04-24T12:47:53;15.50;99.90
49679;DHT22;35570;48.218;16.326;2023-04-24T12:50:19;15.50;99.90
49679;DHT22;35570;48.218;16.326;2023-04-24T12:52:45;15.40;99.90
49679;DHT22;35570;48.218;16.326;2023-04-24T12:55:10;15.40;99.90
49679;DHT22;35570;48.218;16.326;2023-04-24T12:57:39;15.50;99.90
49679;DHT22;35570;48.218;16.326;2023-04-24T13:00:07;15.50;99.90
49679;DHT22;35570;48.218;16.326;2023-04-24T13:02:33;15.50;99.90
49679;DHT22;35570;48.218;16.326;2023-04-24T13:04:59;15.50;99.90
49679;DHT22;35570;48.218;16.326;2023-04-24T13:07:26;15.50;99.90
49679;DHT22;35570;48.218;16.326;2023-04-24T13:09:53;15.50;99.90
49679;DHT22;35570;48.218;16.326;2023-04-24T13:12:19;15.60;99.90
49679;DHT22;35570;48.218;16.326;2023-04-24T13:14:46;15.70;99.90
49679;DHT22;35570;48.218;16.326;2023-04-24T13:17:12;15.80;99.90
49679;DHT22;35570;48.218;16.326;2023-04-24T13:19:41;15.90;99.90
49679;DHT22;35570;48.218;16.326;2023-04-24T13:22:08;16.10;99.90
49679;DHT22;35570;48.218;16.326;2023-04-24T13:24:34;16.00;99.50
49679;DHT22;35570;48.218;16.326;2023-04-24T13:27:00;16.10;99.20
49679;DHT22;35570;48.218;16.326;2023-04-24T13:29:26;16.00;99.60
49679;DHT22;35570;48.218;16.326;2023-04-24T13:31:54;15.90;99.60
49679;DHT22;35570;48.218;16.326;2023-04-24T13:34:24;15.90;99.40
49679;DHT22;35570;48.218;16.326;2023-04-24T13:36:53;15.80;98.50
49679;DHT22;35570;48.218;16.326;2023-04-24T13:39:19;15.80;98.00
49679;DHT22;35570;48.218;16.326;2023-04-24T13:41:45;15.80;99.00
49679;DHT22;35570;48.218;16.326;2023-04-24T13:44:13;15.70;99.20
49679;DHT22;35570;48.218;16.326;2023-04-24T13:46:39;15.60;99.50
49679;DHT22;35570;48.218;16.326;2023-04-24T13:49:04;15.40;99.90
49679;DHT22;35570;48.218;16.326;2023-04-24T13:51:30;15.40;99.90
49679;DHT22;35570;48.218;16.326;2023-04-24T13:53:57;15.30;99.70
49679;DHT22;35570;48.218;16.326;2023-04-24T13:56:23;15.10;99.90
49679;DHT22;35570;48.218;16.326;2023-04-24T13:58:48;15.10;99.90
49679;DHT22;35570;48.218;16.326;2023-04-24T14:01:14;15.00;99.90
49679;DHT22;35570;48.218;16.326;2023-04-24T14:03:41;14.90;99.90
49679;DHT22;35570;48.218;16.326;2023-04-24T14:06:08;14.90;99.90
49679;DHT22;35570;48.218;16.326;2023-04-24T14:08:34;14.80;99.90
49679;DHT22;35570;48.218;16.326;2023-04-24T14:11:00;14.80;99.90
49679;DHT22;35570;48.218;16.326;2023-04-24T14:13:26;14.70;99.90
49679;DHT22;35570;48.218;16.326;2023-04-24T14:15:52;14.60;99.90
49679;DHT22;35570;48.218;16.326;2023-04-24T14:18:18;14.60;99.90
49679;DHT22;35570;48.218;16.326;2023-04-24T14:20:44;14.50;99.90
49679;DHT22;35570;48.218;16.326;2023-04-24T14:23:10;14.50;99.90
49679;DHT22;35570;48.218;16.326;2023-04-24T14:25:35;14.60;99.90
49679;DHT22;35570;48.218;16.326;2023-04-24T14:28:01;14.70;99.90
49679;DHT22;35570;48.218;16.326;2023-04-24T14:30:27;14.80;99.90
49679;DHT22;35570;48.218;16.326;2023-04-24T14:32:52;14.90;99.90
49679;DHT22;35570;48.218;16.326;2023-04-24T14:35:20;15.10;99.90
49679;DHT22;35570;48.218;16.326;2023-04-24T14:37:45;15.00;99.90
49679;DHT22;35570;48.218;16.326;2023-04-24T14:40:11;15.00;99.90
49679;DHT22;35570;48.218;16.326;2023-04-24T14:42:37;14.90;99.90
49679;DHT22;35570;48.218;16.326;2023-04-24T14:45:03;14.80;99.90
49679;DHT22;35570;48.218;16.326;2023-04-24T14:47:29;14.70;99.90
49679;DHT22;35570;48.218;16.326;2023-04-24T14:49:55;14.60;99.90
49679;DHT22;35570;48.218;16.326;2023-04-24T14:52:20;14.50;99.90
49679;DHT22;35570;48.218;16.326;2023-04-24T14:54:46;14.40;99.90
49679;DHT22;35570;48.218;16.326;2023-04-24T14:57:12;14.30;99.90
49679;DHT22;35570;48.218;16.326;2023-04-24T14:59:38;14.30;99.90
49679;DHT22;35570;48.218;16.326;2023-04-24T15:02:04;14.30;99.90
49679;DHT22;35570;48.218;16.326;2023-04-24T15:04:29;14.30;99.90
49679;DHT22;35570;48.218;16.326;2023-04-24T15:06:56;14.30;99.90
49679;DHT22;35570;48.218;16.326;2023-04-24T15:09:22;14.20;99.90
49679;DHT22;35570;48.218;16.326;2023-04-24T15:11:49;14.20;99.90
49679;DHT22;35570;48.218;16.326;2023-04-24T15:14:16;14.20;99.90
49679;DHT22;35570;48.218;16.326;2023-04-24T15:16:42;14.10;99.90
49679;DHT22;35570;48.218;16.326;2023-04-24T15:19:08;14.20;99.90
49679;DHT22;35570;48.218;16.326;2023-04-24T15:21:35;14.00;99.90
49679;DHT22;35570;48.218;16.326;2023-04-24T15:24:00;14.00;99.90
49679;DHT22;35570;48.218;16.326;2023-04-24T15:26:26;13.90;99.90
49679;DHT22;35570;48.218;16.326;2023-04-24T15:28:52;13.90;99.90
49679;DHT22;35570;48.218;16.326;2023-04-24T15:31:18;13.80;99.90
49679;DHT22;35570;48.218;16.326;2023-04-24T15:33:46;13.80;99.90
49679;DHT22;35570;48.218;16.326;2023-04-24T15:36:11;13.70;99.90
49679;DHT22;35570;48.218;16.326;2023-04-24T15:38:37;13.60;99.90
49679;DHT22;35570;48.218;16.326;2023-04-24T15:41:03;13.50;99.90
49679;DHT22;35570;48.218;16.326;2023-04-24T15:43:29;13.40;99.90
49679;DHT22;35570;48.218;16.326;2023-04-24T15:45:56;13.20;99.90
49679;DHT22;35570;48.218;16.326;2023-04-24T15:48:22;13.00;99.90
49679;DHT22;35570;48.218;16.326;2023-04-24T15:50:48;12.80;99.90
49679;DHT22;35570;48.218;16.326;2023-04-24T15:53:16;12.60;99.90
49679;DHT22;35570;48.218;16.326;2023-04-24T15:55:52;12.60;99.90
49679;DHT22;35570;48.218;16.326;2023-04-24T15:58:20;12.50;99.90
49679;DHT22;35570;48.218;16.326;2023-04-24T16:00:46;12.50;99.90
49679;DHT22;35570;48.218;16.326;2023-04-24T16:03:14;12.40;99.90
49679;DHT22;35570;48.218;16.326;2023-04-24T16:05:40;12.40;99.90
49679;DHT22;35570;48.218;16.326;2023-04-24T16:08:07;12.30;99.90
49679;DHT22;35570;48.218;16.326;2023-04-24T16:10:33;12.20;99.90
49679;DHT22;35570;48.218;16.326;2023-04-24T16:12:59;12.10;99.90
49679;DHT22;35570;48.218;16.326;2023-04-24T16:15:29;12.10;99.90
49679;DHT22;35570;48.218;16.326;2023-04-24T16:17:55;12.00;99.90
49679;DHT22;35570;48.218;16.326;2023-04-24T16:20:21;12.00;99.90
49679;DHT22;35570;48.218;16.326;2023-04-24T16:22:47;12.00;99.90
49679;DHT22;35570;48.218;16.326;2023-04-24T16:25:13;12.00;99.90
49679;DHT22;35570;48.218;16.326;2023-04-24T16:27:38;11.90;99.90
49679;DHT22;35570;48.218;16.326;2023-04-24T16:30:05;11.90;99.90
49679;DHT22;35570;48.218;16.326;2023-04-24T16:32:31;11.90;99.90
49679;DHT22;35570;48.218;16.326;2023-04-24T16:34:57;11.90;99.90
49679;DHT22;35570;48.218;16.326;2023-04-24T16:37:24;11.90;99.90
49679;DHT22;35570;48.218;16.326;2023-04-24T16:39:50;11.90;99.90
49679;DHT22;35570;48.218;16.326;2023-04-24T16:42:19;11.90;99.90
49679;DHT22;35570;48.218;16.326;2023-04-24T16:44:46;11.90;99.90
49679;DHT22;35570;48.218;16.326;2023-04-24T16:47:12;11.90;99.90
49679;DHT22;35570;48.218;16.326;2023-04-24T16:49:39;11.90;99.90
49679;DHT22;35570;48.218;16.326;2023-04-24T16:52:06;11.90;99.90
49679;DHT22;35570;48.218;16.326;2023-04-24T16:54:32;11.90;99.90
49679;DHT22;35570;48.218;16.326;2023-04-24T16:57:02;12.00;99.90
49679;DHT22;35570;48.218;16.326;2023-04-24T16:59:29;12.00;99.90
49679;DHT22;35570;48.218;16.326;2023-04-24T17:01:58;12.00;99.90